sensor_id;sensor_type;location;lat;lon;timestamp;P1;durP1;ratioP1;P2;durP2;ratioP2
46875;SDS011;32866;50.160;14.768;2023-09-19T00:00:47;4.90;;;4.70;;
46875;SDS011;32866;50.160;14.768;2023-09-19T00:03:14;5.40;;;5.20;;
46875;SDS011;32866;50.160;14.768;2023-09-19T00:05:41;5.63;;;5.43;;
46875;SDS011;32866;50.160;14.768;2023-09-19T00:08:10;6.72;;;6.45;;
46875;SDS011;32866;50.160;14.768;2023-09-19T00:10:36;6.55;;;6.28;;
46875;SDS011;32866;50.160;14.768;2023-09-19T00:13:02;6.75;;;6.45;;
46875;SDS011;32866;50.160;14.768;2023-09-19T00:15:42;4.85;;;4.65;;
46875;SDS011;32866;50.160;14.768;2023-09-19T00:18:17;4.78;;;4.57;;
46875;SDS011;32866;50.160;14.768;2023-09-19T00:20:46;5.80;;;5.60;;
46875;SDS011;32866;50.160;14.768;2023-09-19T00:23:13;5.57;;;5.38;;
46875;SDS011;32866;50.160;14.768;2023-09-19T00:25:39;5.95;;;5.75;;
46875;SDS011;32866;50.160;14.768;2023-09-19T00:28:05;5.65;;;5.45;;
46875;SDS011;32866;50.160;14.768;2023-09-19T00:30:33;6.63;;;6.35;;
46875;SDS011;32866;50.160;14.768;2023-09-19T00:33:00;6.60;;;6.35;;
46875;SDS011;32866;50.160;14.768;2023-09-19T00:35:27;5.50;;;5.30;;
46875;SDS011;32866;50.160;14.768;2023-09-19T00:37:53;6.22;;;5.97;;
46875;SDS011;32866;50.160;14.768;2023-09-19T00:40:19;6.80;;;6.50;;
46875;SDS011;32866;50.160;14.768;2023-09-19T00:42:47;6.68;;;6.38;;
46875;SDS011;32866;50.160;14.768;2023-09-19T00:45:15;6.60;;;6.32;;
46875;SDS011;32866;50.160;14.768;2023-09-19T00:47:48;7.10;;;6.80;;
46875;SDS011;32866;50.160;14.768;2023-09-19T00:50:17;6.43;;;6.15;;
46875;SDS011;32866;50.160;14.768;2023-09-19T00:52:48;5.88;;;5.68;;
46875;SDS011;32866;50.160;14.768;2023-09-19T00:55:16;5.75;;;5.55;;
46875;SDS011;32866;50.160;14.768;2023-09-19T00:57:45;6.00;;;5.80;;
46875;SDS011;32866;50.160;14.768;2023-09-19T01:00:12;6.00;;;5.80;;
46875;SDS011;32866;50.160;14.768;2023-09-19T01:02:42;5.43;;;5.22;;
46875;SDS011;32866;50.160;14.768;2023-09-19T01:05:09;6.15;;;5.88;;
46875;SDS011;32866;50.160;14.768;2023-09-19T01:07:35;6.38;;;6.15;;
46875;SDS011;32866;50.160;14.768;2023-09-19T01:10:02;6.55;;;6.15;;
46875;SDS011;32866;50.160;14.768;2023-09-19T01:18:11;5.05;;;4.85;;
46875;SDS011;32866;50.160;14.768;2023-09-19T01:26:30;6.40;;;6.15;;
46875;SDS011;32866;50.160;14.768;2023-09-19T01:32:19;5.75;;;5.55;;
46875;SDS011;32866;50.160;14.768;2023-09-19T01:37:16;5.78;;;5.57;;
46875;SDS011;32866;50.160;14.768;2023-09-19T01:39:46;6.38;;;6.13;;
46875;SDS011;32866;50.160;14.768;2023-09-19T01:47:35;6.05;;;5.85;;
46875;SDS011;32866;50.160;14.768;2023-09-19T01:53:15;5.97;;;5.78;;
46875;SDS011;32866;50.160;14.768;2023-09-19T01:55:56;5.88;;;5.68;;
46875;SDS011;32866;50.160;14.768;2023-09-19T01:58:27;5.97;;;5.78;;
46875;SDS011;32866;50.160;14.768;2023-09-19T02:01:00;8.52;;;8.13;;
46875;SDS011;32866;50.160;14.768;2023-09-19T02:03:27;6.55;;;6.25;;
46875;SDS011;32866;50.160;14.768;2023-09-19T02:05:54;6.47;;;6.18;;
46875;SDS011;32866;50.160;14.768;2023-09-19T02:08:21;5.40;;;5.20;;
46875;SDS011;32866;50.160;14.768;2023-09-19T02:10:51;5.70;;;5.50;;
46875;SDS011;32866;50.160;14.768;2023-09-19T02:13:18;3.88;;;3.72;;
46875;SDS011;32866;50.160;14.768;2023-09-19T02:15:46;3.35;;;3.25;;
46875;SDS011;32866;50.160;14.768;2023-09-19T02:18:12;2.85;;;2.75;;
46875;SDS011;32866;50.160;14.768;2023-09-19T02:20:39;2.63;;;2.53;;
46875;SDS011;32866;50.160;14.768;2023-09-19T02:25:31;2.80;;;2.70;;
46875;SDS011;32866;50.160;14.768;2023-09-19T02:27:57;2.38;;;2.28;;
46875;SDS011;32866;50.160;14.768;2023-09-19T02:30:29;1.83;;;1.83;;
46875;SDS011;32866;50.160;14.768;2023-09-19T02:32:55;1.70;;;1.70;;
46875;SDS011;32866;50.160;14.768;2023-09-19T02:35:21;2.30;;;2.20;;
46875;SDS011;32866;50.160;14.768;2023-09-19T02:37:48;2.17;;;2.08;;
46875;SDS011;32866;50.160;14.768;2023-09-19T02:40:14;1.58;;;1.58;;
46875;SDS011;32866;50.160;14.768;2023-09-19T02:42:54;1.80;;;1.73;;
46875;SDS011;32866;50.160;14.768;2023-09-19T02:45:21;2.25;;;2.15;;
46875;SDS011;32866;50.160;14.768;2023-09-19T02:47:49;1.90;;;1.90;;
46875;SDS011;32866;50.160;14.768;2023-09-19T02:50:15;1.67;;;1.67;;
46875;SDS011;32866;50.160;14.768;2023-09-19T02:52:42;2.10;;;2.00;;
46875;SDS011;32866;50.160;14.768;2023-09-19T02:55:10;1.83;;;1.83;;
46875;SDS011;32866;50.160;14.768;2023-09-19T02:57:38;1.73;;;1.73;;
46875;SDS011;32866;50.160;14.768;2023-09-19T03:00:09;1.83;;;1.83;;
46875;SDS011;32866;50.160;14.768;2023-09-19T03:02:36;1.58;;;1.58;;
46875;SDS011;32866;50.160;14.768;2023-09-19T03:05:04;1.30;;;1.30;;
46875;SDS011;32866;50.160;14.768;2023-09-19T03:07:30;1.75;;;1.50;;
46875;SDS011;32866;50.160;14.768;2023-09-19T03:09:56;1.92;;;1.92;;
46875;SDS011;32866;50.160;14.768;2023-09-19T03:12:22;1.40;;;1.40;;
46875;SDS011;32866;50.160;14.768;2023-09-19T03:19:41;1.38;;;1.38;;
46875;SDS011;32866;50.160;14.768;2023-09-19T03:24:33;1.65;;;1.65;;
46875;SDS011;32866;50.160;14.768;2023-09-19T03:27:01;1.50;;;1.50;;
46875;SDS011;32866;50.160;14.768;2023-09-19T03:29:28;1.58;;;1.58;;
46875;SDS011;32866;50.160;14.768;2023-09-19T03:31:54;1.60;;;1.60;;
46875;SDS011;32866;50.160;14.768;2023-09-19T03:34:20;1.65;;;1.55;;
46875;SDS011;32866;50.160;14.768;2023-09-19T03:36:47;1.40;;;1.40;;
46875;SDS011;32866;50.160;14.768;2023-09-19T03:39:13;1.40;;;1.40;;
46875;SDS011;32866;50.160;14.768;2023-09-19T03:41:41;1.30;;;1.30;;
46875;SDS011;32866;50.160;14.768;2023-09-19T03:44:07;1.20;;;1.20;;
46875;SDS011;32866;50.160;14.768;2023-09-19T03:46:33;1.10;;;1.10;;
46875;SDS011;32866;50.160;14.768;2023-09-19T03:49:01;1.30;;;1.30;;
46875;SDS011;32866;50.160;14.768;2023-09-19T03:51:27;1.40;;;1.40;;
46875;SDS011;32866;50.160;14.768;2023-09-19T03:56:19;1.05;;;1.05;;
46875;SDS011;32866;50.160;14.768;2023-09-19T04:01:10;1.27;;;1.27;;
46875;SDS011;32866;50.160;14.768;2023-09-19T04:03:37;1.05;;;1.05;;
46875;SDS011;32866;50.160;14.768;2023-09-19T04:06:15;1.25;;;1.25;;
46875;SDS011;32866;50.160;14.768;2023-09-19T04:08:42;1.05;;;1.05;;
46875;SDS011;32866;50.160;14.768;2023-09-19T04:11:09;1.10;;;1.10;;
46875;SDS011;32866;50.160;14.768;2023-09-19T04:13:36;1.08;;;1.08;;
46875;SDS011;32866;50.160;14.768;2023-09-19T04:18:32;1.33;;;1.33;;
46875;SDS011;32866;50.160;14.768;2023-09-19T04:21:02;1.30;;;1.30;;
46875;SDS011;32866;50.160;14.768;2023-09-19T04:23:30;1.13;;;1.13;;
46875;SDS011;32866;50.160;14.768;2023-09-19T04:25:56;1.30;;;1.30;;
46875;SDS011;32866;50.160;14.768;2023-09-19T04:28:23;1.15;;;1.15;;
46875;SDS011;32866;50.160;14.768;2023-09-19T04:30:50;1.17;;;1.17;;
46875;SDS011;32866;50.160;14.768;2023-09-19T04:33:16;0.90;;;0.90;;
46875;SDS011;32866;50.160;14.768;2023-09-19T04:35:42;1.05;;;1.05;;
46875;SDS011;32866;50.160;14.768;2023-09-19T04:38:08;1.00;;;1.00;;
46875;SDS011;32866;50.160;14.768;2023-09-19T04:40:34;1.40;;;1.40;;
46875;SDS011;32866;50.160;14.768;2023-09-19T04:45:27;1.10;;;1.10;;
46875;SDS011;32866;50.160;14.768;2023-09-19T04:47:53;1.00;;;1.00;;
46875;SDS011;32866;50.160;14.768;2023-09-19T04:50:19;1.05;;;1.05;;
46875;SDS011;32866;50.160;14.768;2023-09-19T04:52:50;1.20;;;1.20;;
46875;SDS011;32866;50.160;14.768;2023-09-19T04:55:17;1.10;;;1.10;;
46875;SDS011;32866;50.160;14.768;2023-09-19T04:57:48;1.30;;;1.30;;
46875;SDS011;32866;50.160;14.768;2023-09-19T05:00:19;2.45;;;1.27;;
46875;SDS011;32866;50.160;14.768;2023-09-19T05:02:52;1.42;;;1.42;;
46875;SDS011;32866;50.160;14.768;2023-09-19T05:05:20;0.98;;;0.98;;
46875;SDS011;32866;50.160;14.768;2023-09-19T05:07:48;1.17;;;1.17;;
46875;SDS011;32866;50.160;14.768;2023-09-19T05:12:40;1.10;;;1.10;;
46875;SDS011;32866;50.160;14.768;2023-09-19T05:15:07;1.55;;;1.55;;
46875;SDS011;32866;50.160;14.768;2023-09-19T05:17:34;1.20;;;1.20;;
46875;SDS011;32866;50.160;14.768;2023-09-19T05:20:00;1.30;;;1.30;;
46875;SDS011;32866;50.160;14.768;2023-09-19T05:22:41;1.02;;;1.02;;
46875;SDS011;32866;50.160;14.768;2023-09-19T05:25:11;1.17;;;1.17;;
46875;SDS011;32866;50.160;14.768;2023-09-19T05:27:42;1.20;;;1.20;;
46875;SDS011;32866;50.160;14.768;2023-09-19T05:30:09;1.02;;;1.02;;
46875;SDS011;32866;50.160;14.768;2023-09-19T05:32:35;1.70;;;1.60;;
46875;SDS011;32866;50.160;14.768;2023-09-19T05:35:01;0.93;;;0.93;;
46875;SDS011;32866;50.160;14.768;2023-09-19T05:37:28;1.40;;;1.40;;
46875;SDS011;32866;50.160;14.768;2023-09-19T05:39:55;1.30;;;1.30;;
46875;SDS011;32866;50.160;14.768;2023-09-19T05:42:21;1.30;;;1.30;;
46875;SDS011;32866;50.160;14.768;2023-09-19T05:47:23;1.70;;;1.60;;
46875;SDS011;32866;50.160;14.768;2023-09-19T05:49:50;1.10;;;1.10;;
46875;SDS011;32866;50.160;14.768;2023-09-19T05:52:17;1.48;;;1.48;;
46875;SDS011;32866;50.160;14.768;2023-09-19T05:54:44;1.42;;;1.42;;
46875;SDS011;32866;50.160;14.768;2023-09-19T05:57:10;1.23;;;1.23;;
46875;SDS011;32866;50.160;14.768;2023-09-19T05:59:37;1.48;;;1.45;;
46875;SDS011;32866;50.160;14.768;2023-09-19T06:02:05;1.10;;;1.10;;
46875;SDS011;32866;50.160;14.768;2023-09-19T06:04:32;1.40;;;1.40;;
46875;SDS011;32866;50.160;14.768;2023-09-19T06:06:58;1.10;;;1.10;;
46875;SDS011;32866;50.160;14.768;2023-09-19T06:11:49;1.17;;;1.17;;
46875;SDS011;32866;50.160;14.768;2023-09-19T06:14:16;1.30;;;1.30;;
46875;SDS011;32866;50.160;14.768;2023-09-19T06:16:43;1.10;;;1.10;;
46875;SDS011;32866;50.160;14.768;2023-09-19T06:19:09;1.10;;;1.10;;
46875;SDS011;32866;50.160;14.768;2023-09-19T06:21:36;1.40;;;1.40;;
46875;SDS011;32866;50.160;14.768;2023-09-19T06:24:02;1.30;;;1.30;;
46875;SDS011;32866;50.160;14.768;2023-09-19T06:26:28;1.58;;;1.58;;
46875;SDS011;32866;50.160;14.768;2023-09-19T06:28:55;1.25;;;1.25;;
46875;SDS011;32866;50.160;14.768;2023-09-19T06:31:22;1.33;;;1.30;;
46875;SDS011;32866;50.160;14.768;2023-09-19T06:33:52;1.00;;;1.00;;
46875;SDS011;32866;50.160;14.768;2023-09-19T06:36:18;1.15;;;1.15;;
46875;SDS011;32866;50.160;14.768;2023-09-19T06:38:45;1.67;;;1.50;;
46875;SDS011;32866;50.160;14.768;2023-09-19T06:41:11;1.92;;;1.83;;
46875;SDS011;32866;50.160;14.768;2023-09-19T06:43:39;2.03;;;1.92;;
46875;SDS011;32866;50.160;14.768;2023-09-19T06:46:05;1.30;;;1.30;;
46875;SDS011;32866;50.160;14.768;2023-09-19T06:48:32;1.17;;;1.17;;
46875;SDS011;32866;50.160;14.768;2023-09-19T06:50:59;1.38;;;1.38;;
46875;SDS011;32866;50.160;14.768;2023-09-19T06:53:31;1.90;;;1.83;;
46875;SDS011;32866;50.160;14.768;2023-09-19T06:55:58;1.30;;;1.30;;
46875;SDS011;32866;50.160;14.768;2023-09-19T06:58:24;1.08;;;1.08;;
46875;SDS011;32866;50.160;14.768;2023-09-19T07:03:16;1.58;;;1.42;;
46875;SDS011;32866;50.160;14.768;2023-09-19T07:05:47;1.10;;;1.10;;
46875;SDS011;32866;50.160;14.768;2023-09-19T07:08:14;1.00;;;1.00;;
46875;SDS011;32866;50.160;14.768;2023-09-19T07:10:41;1.25;;;1.25;;
46875;SDS011;32866;50.160;14.768;2023-09-19T07:13:14;1.00;;;1.00;;
46875;SDS011;32866;50.160;14.768;2023-09-19T07:15:42;1.63;;;1.63;;
46875;SDS011;32866;50.160;14.768;2023-09-19T07:18:13;1.00;;;1.00;;
46875;SDS011;32866;50.160;14.768;2023-09-19T07:20:40;0.88;;;0.88;;
46875;SDS011;32866;50.160;14.768;2023-09-19T07:23:11;1.00;;;1.00;;
46875;SDS011;32866;50.160;14.768;2023-09-19T07:25:40;0.80;;;0.80;;
46875;SDS011;32866;50.160;14.768;2023-09-19T07:28:06;0.90;;;0.90;;
46875;SDS011;32866;50.160;14.768;2023-09-19T07:30:35;0.85;;;0.85;;
46875;SDS011;32866;50.160;14.768;2023-09-19T07:33:03;1.00;;;1.00;;
46875;SDS011;32866;50.160;14.768;2023-09-19T07:35:31;0.80;;;0.80;;
46875;SDS011;32866;50.160;14.768;2023-09-19T07:37:57;0.95;;;0.95;;
46875;SDS011;32866;50.160;14.768;2023-09-19T07:40:24;6.22;;;1.38;;
46875;SDS011;32866;50.160;14.768;2023-09-19T07:42:55;0.75;;;0.75;;
46875;SDS011;32866;50.160;14.768;2023-09-19T07:45:21;0.80;;;0.80;;
46875;SDS011;32866;50.160;14.768;2023-09-19T07:47:48;1.02;;;1.02;;
46875;SDS011;32866;50.160;14.768;2023-09-19T07:50:16;1.05;;;1.05;;
46875;SDS011;32866;50.160;14.768;2023-09-19T07:52:46;1.15;;;1.15;;
46875;SDS011;32866;50.160;14.768;2023-09-19T07:55:13;1.02;;;1.02;;
46875;SDS011;32866;50.160;14.768;2023-09-19T07:57:42;0.80;;;0.80;;
46875;SDS011;32866;50.160;14.768;2023-09-19T08:00:09;1.15;;;1.08;;
46875;SDS011;32866;50.160;14.768;2023-09-19T08:02:36;0.85;;;0.85;;
46875;SDS011;32866;50.160;14.768;2023-09-19T08:05:05;0.70;;;0.70;;
46875;SDS011;32866;50.160;14.768;2023-09-19T08:07:35;0.68;;;0.68;;
46875;SDS011;32866;50.160;14.768;2023-09-19T08:10:03;0.60;;;0.60;;
46875;SDS011;32866;50.160;14.768;2023-09-19T08:12:30;0.85;;;0.85;;
46875;SDS011;32866;50.160;14.768;2023-09-19T08:14:56;0.98;;;0.98;;
46875;SDS011;32866;50.160;14.768;2023-09-19T08:17:22;0.70;;;0.70;;
46875;SDS011;32866;50.160;14.768;2023-09-19T08:19:49;0.77;;;0.77;;
46875;SDS011;32866;50.160;14.768;2023-09-19T08:22:19;1.00;;;1.00;;
46875;SDS011;32866;50.160;14.768;2023-09-19T08:24:45;0.80;;;0.80;;
46875;SDS011;32866;50.160;14.768;2023-09-19T08:27:13;1.17;;;1.17;;
46875;SDS011;32866;50.160;14.768;2023-09-19T08:29:39;0.70;;;0.70;;
46875;SDS011;32866;50.160;14.768;2023-09-19T08:32:05;0.80;;;0.80;;
46875;SDS011;32866;50.160;14.768;2023-09-19T08:34:31;0.70;;;0.70;;
46875;SDS011;32866;50.160;14.768;2023-09-19T08:36:59;0.80;;;0.80;;
46875;SDS011;32866;50.160;14.768;2023-09-19T08:39:25;1.05;;;1.05;;
46875;SDS011;32866;50.160;14.768;2023-09-19T08:42:01;0.98;;;0.98;;
46875;SDS011;32866;50.160;14.768;2023-09-19T08:44:27;0.85;;;0.85;;
46875;SDS011;32866;50.160;14.768;2023-09-19T08:47:32;0.90;;;0.90;;
46875;SDS011;32866;50.160;14.768;2023-09-19T08:49:59;0.80;;;0.80;;
46875;SDS011;32866;50.160;14.768;2023-09-19T08:52:32;0.90;;;0.90;;
46875;SDS011;32866;50.160;14.768;2023-09-19T08:57:33;0.80;;;0.80;;
46875;SDS011;32866;50.160;14.768;2023-09-19T09:00:03;1.00;;;1.00;;
46875;SDS011;32866;50.160;14.768;2023-09-19T09:02:37;0.80;;;0.80;;
46875;SDS011;32866;50.160;14.768;2023-09-19T09:05:10;1.10;;;1.10;;
46875;SDS011;32866;50.160;14.768;2023-09-19T09:07:40;1.05;;;1.05;;
46875;SDS011;32866;50.160;14.768;2023-09-19T09:10:06;1.00;;;1.00;;
46875;SDS011;32866;50.160;14.768;2023-09-19T09:12:34;0.90;;;0.88;;
46875;SDS011;32866;50.160;14.768;2023-09-19T09:15:02;1.15;;;1.15;;
46875;SDS011;32866;50.160;14.768;2023-09-19T09:17:29;0.70;;;0.70;;
46875;SDS011;32866;50.160;14.768;2023-09-19T09:19:56;0.88;;;0.88;;
46875;SDS011;32866;50.160;14.768;2023-09-19T09:22:22;0.70;;;0.70;;
46875;SDS011;32866;50.160;14.768;2023-09-19T09:24:53;0.93;;;0.93;;
46875;SDS011;32866;50.160;14.768;2023-09-19T09:27:20;0.82;;;0.82;;
46875;SDS011;32866;50.160;14.768;2023-09-19T09:29:49;0.90;;;0.90;;
46875;SDS011;32866;50.160;14.768;2023-09-19T09:32:26;1.10;;;1.10;;
46875;SDS011;32866;50.160;14.768;2023-09-19T09:34:55;0.80;;;0.80;;
46875;SDS011;32866;50.160;14.768;2023-09-19T09:37:23;1.27;;;1.27;;
46875;SDS011;32866;50.160;14.768;2023-09-19T09:39:56;0.77;;;0.77;;
46875;SDS011;32866;50.160;14.768;2023-09-19T09:42:31;0.82;;;0.82;;
46875;SDS011;32866;50.160;14.768;2023-09-19T09:45:12;1.15;;;1.15;;
46875;SDS011;32866;50.160;14.768;2023-09-19T09:48:03;0.60;;;0.60;;
46875;SDS011;32866;50.160;14.768;2023-09-19T09:50:33;0.95;;;0.70;;
46875;SDS011;32866;50.160;14.768;2023-09-19T10:01:14;0.80;;;0.80;;
46875;SDS011;32866;50.160;14.768;2023-09-19T10:03:41;5.28;;;1.85;;
46875;SDS011;32866;50.160;14.768;2023-09-19T10:06:17;1.00;;;1.00;;
46875;SDS011;32866;50.160;14.768;2023-09-19T10:08:58;4.57;;;1.13;;
46875;SDS011;32866;50.160;14.768;2023-09-19T10:11:44;0.80;;;0.80;;
46875;SDS011;32866;50.160;14.768;2023-09-19T10:14:13;0.80;;;0.80;;
46875;SDS011;32866;50.160;14.768;2023-09-19T10:16:48;0.95;;;0.95;;
46875;SDS011;32866;50.160;14.768;2023-09-19T10:19:15;0.70;;;0.70;;
46875;SDS011;32866;50.160;14.768;2023-09-19T10:21:55;0.60;;;0.60;;
46875;SDS011;32866;50.160;14.768;2023-09-19T10:24:24;1.00;;;0.90;;
46875;SDS011;32866;50.160;14.768;2023-09-19T10:26:53;0.47;;;0.47;;
46875;SDS011;32866;50.160;14.768;2023-09-19T10:29:23;0.60;;;0.60;;
46875;SDS011;32866;50.160;14.768;2023-09-19T10:31:53;0.40;;;0.40;;
46875;SDS011;32866;50.160;14.768;2023-09-19T10:34:23;0.60;;;0.60;;
46875;SDS011;32866;50.160;14.768;2023-09-19T10:36:52;0.77;;;0.77;;
46875;SDS011;32866;50.160;14.768;2023-09-19T10:39:19;0.60;;;0.60;;
46875;SDS011;32866;50.160;14.768;2023-09-19T10:41:47;0.90;;;0.90;;
46875;SDS011;32866;50.160;14.768;2023-09-19T10:44:25;0.60;;;0.60;;
46875;SDS011;32866;50.160;14.768;2023-09-19T10:46:51;0.38;;;0.38;;
46875;SDS011;32866;50.160;14.768;2023-09-19T10:49:20;0.70;;;0.70;;
46875;SDS011;32866;50.160;14.768;2023-09-19T10:51:47;0.55;;;0.55;;
46875;SDS011;32866;50.160;14.768;2023-09-19T10:54:17;0.57;;;0.57;;
46875;SDS011;32866;50.160;14.768;2023-09-19T10:56:48;0.70;;;0.70;;
46875;SDS011;32866;50.160;14.768;2023-09-19T10:59:18;0.50;;;0.50;;
46875;SDS011;32866;50.160;14.768;2023-09-19T11:01:45;0.77;;;0.77;;
46875;SDS011;32866;50.160;14.768;2023-09-19T11:04:29;0.77;;;0.77;;
46875;SDS011;32866;50.160;14.768;2023-09-19T11:07:06;0.50;;;0.50;;
46875;SDS011;32866;50.160;14.768;2023-09-19T11:14:52;0.80;;;0.80;;
46875;SDS011;32866;50.160;14.768;2023-09-19T11:30:39;0.55;;;0.55;;
46875;SDS011;32866;50.160;14.768;2023-09-19T11:36:04;0.40;;;0.40;;
46875;SDS011;32866;50.160;14.768;2023-09-19T11:43:45;0.60;;;0.60;;
46875;SDS011;32866;50.160;14.768;2023-09-19T11:46:12;0.70;;;0.70;;
46875;SDS011;32866;50.160;14.768;2023-09-19T11:48:42;0.80;;;0.80;;
46875;SDS011;32866;50.160;14.768;2023-09-19T11:51:13;0.82;;;0.82;;
46875;SDS011;32866;50.160;14.768;2023-09-19T11:53:48;1.70;;;1.60;;
46875;SDS011;32866;50.160;14.768;2023-09-19T11:56:16;0.70;;;0.70;;
46875;SDS011;32866;50.160;14.768;2023-09-19T11:58:44;0.88;;;0.88;;
46875;SDS011;32866;50.160;14.768;2023-09-19T12:01:13;0.70;;;0.70;;
46875;SDS011;32866;50.160;14.768;2023-09-19T12:03:45;0.82;;;0.82;;
46875;SDS011;32866;50.160;14.768;2023-09-19T12:06:14;0.80;;;0.80;;
46875;SDS011;32866;50.160;14.768;2023-09-19T12:08:42;0.50;;;0.50;;
46875;SDS011;32866;50.160;14.768;2023-09-19T12:11:15;0.40;;;0.40;;
46875;SDS011;32866;50.160;14.768;2023-09-19T12:13:43;0.60;;;0.60;;
46875;SDS011;32866;50.160;14.768;2023-09-19T12:16:13;0.60;;;0.60;;
46875;SDS011;32866;50.160;14.768;2023-09-19T12:18:50;0.30;;;0.30;;
46875;SDS011;32866;50.160;14.768;2023-09-19T12:21:23;0.70;;;0.70;;
46875;SDS011;32866;50.160;14.768;2023-09-19T12:24:06;0.50;;;0.50;;
46875;SDS011;32866;50.160;14.768;2023-09-19T12:26:40;0.30;;;0.30;;
46875;SDS011;32866;50.160;14.768;2023-09-19T12:29:14;0.20;;;0.20;;
46875;SDS011;32866;50.160;14.768;2023-09-19T12:31:51;0.40;;;0.40;;
46875;SDS011;32866;50.160;14.768;2023-09-19T12:34:26;0.25;;;0.25;;
46875;SDS011;32866;50.160;14.768;2023-09-19T12:39:46;1.25;;;0.32;;
46875;SDS011;32866;50.160;14.768;2023-09-19T12:42:19;2.92;;;0.30;;
46875;SDS011;32866;50.160;14.768;2023-09-19T12:44:49;0.10;;;0.10;;
46875;SDS011;32866;50.160;14.768;2023-09-19T12:47:22;0.27;;;0.27;;
46875;SDS011;32866;50.160;14.768;2023-09-19T12:50:05;0.30;;;0.30;;
46875;SDS011;32866;50.160;14.768;2023-09-19T12:52:42;0.30;;;0.30;;
46875;SDS011;32866;50.160;14.768;2023-09-19T12:55:19;0.20;;;0.20;;
46875;SDS011;32866;50.160;14.768;2023-09-19T12:57:55;0.32;;;0.32;;
46875;SDS011;32866;50.160;14.768;2023-09-19T13:00:34;0.20;;;0.20;;
46875;SDS011;32866;50.160;14.768;2023-09-19T13:03:11;0.28;;;0.28;;
46875;SDS011;32866;50.160;14.768;2023-09-19T13:05:48;0.17;;;0.17;;
46875;SDS011;32866;50.160;14.768;2023-09-19T13:08:26;0.20;;;0.20;;
46875;SDS011;32866;50.160;14.768;2023-09-19T13:11:11;0.28;;;0.28;;
46875;SDS011;32866;50.160;14.768;2023-09-19T13:13:42;0.40;;;0.40;;
46875;SDS011;32866;50.160;14.768;2023-09-19T13:16:11;0.20;;;0.20;;
46875;SDS011;32866;50.160;14.768;2023-09-19T13:21:35;0.30;;;0.30;;
46875;SDS011;32866;50.160;14.768;2023-09-19T13:24:17;0.20;;;0.20;;
46875;SDS011;32866;50.160;14.768;2023-09-19T13:26:53;0.20;;;0.20;;
46875;SDS011;32866;50.160;14.768;2023-09-19T13:29:20;0.38;;;0.38;;
46875;SDS011;32866;50.160;14.768;2023-09-19T13:31:46;0.30;;;0.30;;
46875;SDS011;32866;50.160;14.768;2023-09-19T13:34:18;1.17;;;0.43;;
46875;SDS011;32866;50.160;14.768;2023-09-19T13:36:45;0.35;;;0.35;;
46875;SDS011;32866;50.160;14.768;2023-09-19T13:39:14;0.40;;;0.40;;
46875;SDS011;32866;50.160;14.768;2023-09-19T13:41:46;0.22;;;0.22;;
46875;SDS011;32866;50.160;14.768;2023-09-19T13:44:13;0.40;;;0.40;;
46875;SDS011;32866;50.160;14.768;2023-09-19T13:46:39;0.40;;;0.40;;
46875;SDS011;32866;50.160;14.768;2023-09-19T13:49:09;0.38;;;0.38;;
46875;SDS011;32866;50.160;14.768;2023-09-19T13:51:35;0.63;;;0.63;;
46875;SDS011;32866;50.160;14.768;2023-09-19T13:54:01;0.30;;;0.30;;
46875;SDS011;32866;50.160;14.768;2023-09-19T13:56:27;1.33;;;0.52;;
46875;SDS011;32866;50.160;14.768;2023-09-19T13:58:57;0.43;;;0.43;;
46875;SDS011;32866;50.160;14.768;2023-09-19T14:01:23;0.47;;;0.47;;
46875;SDS011;32866;50.160;14.768;2023-09-19T14:03:52;0.30;;;0.30;;
46875;SDS011;32866;50.160;14.768;2023-09-19T14:06:19;1.35;;;0.68;;
46875;SDS011;32866;50.160;14.768;2023-09-19T14:08:45;0.30;;;0.30;;
46875;SDS011;32866;50.160;14.768;2023-09-19T14:11:15;0.50;;;0.50;;
46875;SDS011;32866;50.160;14.768;2023-09-19T14:13:42;0.55;;;0.55;;
46875;SDS011;32866;50.160;14.768;2023-09-19T14:16:12;0.40;;;0.40;;
46875;SDS011;32866;50.160;14.768;2023-09-19T14:18:38;0.52;;;0.45;;
46875;SDS011;32866;50.160;14.768;2023-09-19T14:21:05;0.40;;;0.40;;
46875;SDS011;32866;50.160;14.768;2023-09-19T14:23:36;0.50;;;0.50;;
46875;SDS011;32866;50.160;14.768;2023-09-19T14:26:03;0.40;;;0.40;;
46875;SDS011;32866;50.160;14.768;2023-09-19T14:28:31;0.32;;;0.32;;
46875;SDS011;32866;50.160;14.768;2023-09-19T14:31:08;0.40;;;0.40;;
46875;SDS011;32866;50.160;14.768;2023-09-19T14:33:35;0.85;;;0.80;;
46875;SDS011;32866;50.160;14.768;2023-09-19T14:36:02;0.63;;;0.63;;
46875;SDS011;32866;50.160;14.768;2023-09-19T14:38:34;0.60;;;0.60;;
46875;SDS011;32866;50.160;14.768;2023-09-19T14:41:04;0.40;;;0.40;;
46875;SDS011;32866;50.160;14.768;2023-09-19T14:43:31;0.50;;;0.50;;
46875;SDS011;32866;50.160;14.768;2023-09-19T14:46:04;0.80;;;0.80;;
46875;SDS011;32866;50.160;14.768;2023-09-19T14:48:33;0.40;;;0.40;;
46875;SDS011;32866;50.160;14.768;2023-09-19T14:51:03;0.50;;;0.50;;
46875;SDS011;32866;50.160;14.768;2023-09-19T14:53:32;2.15;;;0.80;;
46875;SDS011;32866;50.160;14.768;2023-09-19T14:56:01;0.55;;;0.55;;
46875;SDS011;32866;50.160;14.768;2023-09-19T14:58:31;0.50;;;0.50;;
46875;SDS011;32866;50.160;14.768;2023-09-19T15:01:07;0.47;;;0.47;;
46875;SDS011;32866;50.160;14.768;2023-09-19T15:03:36;0.73;;;0.73;;
46875;SDS011;32866;50.160;14.768;2023-09-19T15:06:06;0.60;;;0.60;;
46875;SDS011;32866;50.160;14.768;2023-09-19T15:08:34;0.60;;;0.60;;
46875;SDS011;32866;50.160;14.768;2023-09-19T15:11:09;0.68;;;0.68;;
46875;SDS011;32866;50.160;14.768;2023-09-19T15:13:36;0.60;;;0.60;;
46875;SDS011;32866;50.160;14.768;2023-09-19T15:16:03;0.50;;;0.50;;
46875;SDS011;32866;50.160;14.768;2023-09-19T15:18:30;0.85;;;0.85;;
46875;SDS011;32866;50.160;14.768;2023-09-19T15:21:00;0.70;;;0.70;;
46875;SDS011;32866;50.160;14.768;2023-09-19T15:23:26;0.57;;;0.57;;
46875;SDS011;32866;50.160;14.768;2023-09-19T15:25:53;0.70;;;0.70;;
46875;SDS011;32866;50.160;14.768;2023-09-19T15:28:19;0.90;;;0.90;;
46875;SDS011;32866;50.160;14.768;2023-09-19T15:30:56;0.60;;;0.60;;
46875;SDS011;32866;50.160;14.768;2023-09-19T15:33:25;0.57;;;0.57;;
46875;SDS011;32866;50.160;14.768;2023-09-19T15:36:03;0.60;;;0.60;;
46875;SDS011;32866;50.160;14.768;2023-09-19T15:38:30;0.60;;;0.60;;
46875;SDS011;32866;50.160;14.768;2023-09-19T15:40:58;0.75;;;0.75;;
46875;SDS011;32866;50.160;14.768;2023-09-19T15:43:25;0.68;;;0.68;;
46875;SDS011;32866;50.160;14.768;2023-09-19T15:45:51;0.60;;;0.60;;
46875;SDS011;32866;50.160;14.768;2023-09-19T15:48:17;0.95;;;0.95;;
46875;SDS011;32866;50.160;14.768;2023-09-19T15:50:44;0.70;;;0.70;;
46875;SDS011;32866;50.160;14.768;2023-09-19T15:53:10;0.60;;;0.60;;
46875;SDS011;32866;50.160;14.768;2023-09-19T15:55:38;0.80;;;0.80;;
46875;SDS011;32866;50.160;14.768;2023-09-19T15:58:08;0.80;;;0.80;;
46875;SDS011;32866;50.160;14.768;2023-09-19T16:00:39;0.50;;;0.50;;
46875;SDS011;32866;50.160;14.768;2023-09-19T16:03:06;0.60;;;0.60;;
46875;SDS011;32866;50.160;14.768;2023-09-19T16:05:35;0.75;;;0.75;;
46875;SDS011;32866;50.160;14.768;2023-09-19T16:08:05;0.77;;;0.77;;
46875;SDS011;32866;50.160;14.768;2023-09-19T16:10:35;0.60;;;0.60;;
46875;SDS011;32866;50.160;14.768;2023-09-19T16:13:05;0.70;;;0.70;;
46875;SDS011;32866;50.160;14.768;2023-09-19T16:15:31;0.70;;;0.70;;
46875;SDS011;32866;50.160;14.768;2023-09-19T16:17:58;0.70;;;0.70;;
46875;SDS011;32866;50.160;14.768;2023-09-19T16:20:26;0.70;;;0.70;;
46875;SDS011;32866;50.160;14.768;2023-09-19T16:22:53;0.52;;;0.52;;